sensor_id;sensor_type;location;lat;lon;timestamp;P1;durP1;ratioP1;P2;durP2;ratioP2
5454;SDS011;2750;49.050;9.250;2022-07-25T00:01:06;14.90;;;13.70;;
5454;SDS011;2750;49.050;9.250;2022-07-25T00:06:09;15.73;;;14.13;;
5454;SDS011;2750;49.050;9.250;2022-07-25T00:11:10;14.97;;;13.43;;
5454;SDS011;2750;49.050;9.250;2022-07-25T00:16:12;15.50;;;13.87;;
5454;SDS011;2750;49.050;9.250;2022-07-25T00:21:15;14.90;;;13.70;;
5454;SDS011;2750;49.050;9.250;2022-07-25T00:26:16;15.43;;;14.03;;
5454;SDS011;2750;49.050;9.250;2022-07-25T00:31:18;16.03;;;14.50;;
5454;SDS011;2750;49.050;9.250;2022-07-25T00:36:21;15.80;;;14.50;;
5454;SDS011;2750;49.050;9.250;2022-07-25T00:41:22;14.90;;;13.60;;
5454;SDS011;2750;49.050;9.250;2022-07-25T00:46:24;14.67;;;13.43;;
5454;SDS011;2750;49.050;9.250;2022-07-25T00:51:27;14.97;;;13.67;;
5454;SDS011;2750;49.050;9.250;2022-07-25T00:56:28;15.53;;;14.20;;
5454;SDS011;2750;49.050;9.250;2022-07-25T01:01:30;15.73;;;14.23;;
5454;SDS011;2750;49.050;9.250;2022-07-25T01:06:33;15.80;;;14.30;;
5454;SDS011;2750;49.050;9.250;2022-07-25T01:11:35;15.13;;;13.73;;
5454;SDS011;2750;49.050;9.250;2022-07-25T01:16:36;16.10;;;13.43;;
5454;SDS011;2750;49.050;9.250;2022-07-25T01:21:41;15.57;;;14.03;;
5454;SDS011;2750;49.050;9.250;2022-07-25T01:26:42;13.20;;;12.10;;
5454;SDS011;2750;49.050;9.250;2022-07-25T01:31:44;14.37;;;13.10;;
5454;SDS011;2750;49.050;9.250;2022-07-25T01:36:47;14.40;;;13.00;;
5454;SDS011;2750;49.050;9.250;2022-07-25T01:41:48;15.70;;;14.17;;
5454;SDS011;2750;49.050;9.250;2022-07-25T01:46:50;14.37;;;13.17;;
5454;SDS011;2750;49.050;9.250;2022-07-25T01:51:53;14.87;;;13.67;;
5454;SDS011;2750;49.050;9.250;2022-07-25T01:56:54;14.33;;;13.13;;
5454;SDS011;2750;49.050;9.250;2022-07-25T02:01:56;15.10;;;13.60;;
5454;SDS011;2750;49.050;9.250;2022-07-25T02:06:59;15.27;;;13.90;;
5454;SDS011;2750;49.050;9.250;2022-07-25T02:12:00;14.83;;;13.43;;
5454;SDS011;2750;49.050;9.250;2022-07-25T02:17:02;13.60;;;12.40;;
5454;SDS011;2750;49.050;9.250;2022-07-25T02:22:05;14.47;;;13.07;;
5454;SDS011;2750;49.050;9.250;2022-07-25T02:27:07;14.60;;;13.33;;
5454;SDS011;2750;49.050;9.250;2022-07-25T02:32:08;14.23;;;12.83;;
5454;SDS011;2750;49.050;9.250;2022-07-25T02:37:11;13.83;;;12.57;;
5454;SDS011;2750;49.050;9.250;2022-07-25T02:42:12;13.93;;;12.63;;
5454;SDS011;2750;49.050;9.250;2022-07-25T02:47:14;14.30;;;13.00;;
5454;SDS011;2750;49.050;9.250;2022-07-25T02:52:17;15.70;;;12.60;;
5454;SDS011;2750;49.050;9.250;2022-07-25T02:57:18;13.80;;;12.50;;
5454;SDS011;2750;49.050;9.250;2022-07-25T03:02:20;13.47;;;12.27;;
5454;SDS011;2750;49.050;9.250;2022-07-25T03:07:22;14.17;;;12.87;;
5454;SDS011;2750;49.050;9.250;2022-07-25T03:12:24;14.67;;;13.23;;
5454;SDS011;2750;49.050;9.250;2022-07-25T03:17:25;14.80;;;12.73;;
5454;SDS011;2750;49.050;9.250;2022-07-25T03:22:28;13.73;;;12.53;;
5454;SDS011;2750;49.050;9.250;2022-07-25T03:27:30;13.93;;;12.67;;
5454;SDS011;2750;49.050;9.250;2022-07-25T03:32:31;13.73;;;12.47;;
5454;SDS011;2750;49.050;9.250;2022-07-25T03:37:34;13.17;;;12.07;;
5454;SDS011;2750;49.050;9.250;2022-07-25T03:42:35;14.50;;;13.20;;
5454;SDS011;2750;49.050;9.250;2022-07-25T03:47:37;15.47;;;13.83;;
5454;SDS011;2750;49.050;9.250;2022-07-25T03:52:40;13.77;;;12.47;;
5454;SDS011;2750;49.050;9.250;2022-07-25T03:57:41;14.20;;;12.97;;
5454;SDS011;2750;49.050;9.250;2022-07-25T04:02:43;13.10;;;11.97;;
5454;SDS011;2750;49.050;9.250;2022-07-25T04:07:46;12.37;;;11.17;;
5454;SDS011;2750;49.050;9.250;2022-07-25T04:12:47;13.23;;;12.13;;
5454;SDS011;2750;49.050;9.250;2022-07-25T04:17:48;13.27;;;12.00;;
5454;SDS011;2750;49.050;9.250;2022-07-25T04:22:51;13.50;;;12.20;;
5454;SDS011;2750;49.050;9.250;2022-07-25T04:27:53;12.70;;;11.60;;
5454;SDS011;2750;49.050;9.250;2022-07-25T04:32:54;12.57;;;11.48;;
5454;SDS011;2750;49.050;9.250;2022-07-25T04:37:57;13.05;;;11.68;;
5454;SDS011;2750;49.050;9.250;2022-07-25T04:42:59;12.25;;;11.13;;
5454;SDS011;2750;49.050;9.250;2022-07-25T04:48:00;13.38;;;12.07;;
5454;SDS011;2750;49.050;9.250;2022-07-25T04:53:04;13.20;;;11.82;;
5454;SDS011;2750;49.050;9.250;2022-07-25T04:58:05;11.57;;;10.63;;
5454;SDS011;2750;49.050;9.250;2022-07-25T05:03:07;11.95;;;10.82;;
5454;SDS011;2750;49.050;9.250;2022-07-25T05:08:09;12.00;;;11.05;;
5454;SDS011;2750;49.050;9.250;2022-07-25T05:13:11;11.75;;;10.80;;
5454;SDS011;2750;49.050;9.250;2022-07-25T05:18:12;12.15;;;11.05;;
5454;SDS011;2750;49.050;9.250;2022-07-25T05:23:15;11.95;;;11.05;;
5454;SDS011;2750;49.050;9.250;2022-07-25T05:28:17;13.95;;;12.02;;
5454;SDS011;2750;49.050;9.250;2022-07-25T05:33:18;11.90;;;10.98;;
5454;SDS011;2750;49.050;9.250;2022-07-25T05:38:21;12.18;;;11.18;;
5454;SDS011;2750;49.050;9.250;2022-07-25T05:43:23;11.88;;;10.98;;
5454;SDS011;2750;49.050;9.250;2022-07-25T05:48:25;11.02;;;10.20;;
5454;SDS011;2750;49.050;9.250;2022-07-25T05:53:28;11.85;;;11.00;;
5454;SDS011;2750;49.050;9.250;2022-07-25T05:58:29;12.23;;;11.18;;
5454;SDS011;2750;49.050;9.250;2022-07-25T06:03:31;11.98;;;10.88;;
5454;SDS011;2750;49.050;9.250;2022-07-25T06:08:34;12.25;;;11.15;;
5454;SDS011;2750;49.050;9.250;2022-07-25T06:13:36;12.07;;;11.18;;
5454;SDS011;2750;49.050;9.250;2022-07-25T06:18:37;10.38;;;9.48;;
5454;SDS011;2750;49.050;9.250;2022-07-25T06:23:40;12.38;;;11.38;;
5454;SDS011;2750;49.050;9.250;2022-07-25T06:28:42;11.20;;;10.20;;
5454;SDS011;2750;49.050;9.250;2022-07-25T06:33:44;12.20;;;10.98;;
5454;SDS011;2750;49.050;9.250;2022-07-25T06:38:47;11.77;;;10.77;;
5454;SDS011;2750;49.050;9.250;2022-07-25T06:43:48;12.40;;;11.40;;
5454;SDS011;2750;49.050;9.250;2022-07-25T06:48:50;11.15;;;10.32;;
5454;SDS011;2750;49.050;9.250;2022-07-25T06:53:53;11.52;;;10.60;;
5454;SDS011;2750;49.050;9.250;2022-07-25T06:58:55;12.10;;;11.00;;
5454;SDS011;2750;49.050;9.250;2022-07-25T07:03:57;12.02;;;11.00;;
5454;SDS011;2750;49.050;9.250;2022-07-25T07:09:00;11.68;;;10.77;;
5454;SDS011;2750;49.050;9.250;2022-07-25T07:14:01;11.98;;;10.68;;
5454;SDS011;2750;49.050;9.250;2022-07-25T07:19:03;11.95;;;10.88;;
5454;SDS011;2750;49.050;9.250;2022-07-25T07:24:06;12.38;;;11.30;;
5454;SDS011;2750;49.050;9.250;2022-07-25T07:29:08;12.07;;;10.93;;
5454;SDS011;2750;49.050;9.250;2022-07-25T07:34:10;12.00;;;10.98;;
5454;SDS011;2750;49.050;9.250;2022-07-25T07:39:14;12.23;;;11.32;;
5454;SDS011;2750;49.050;9.250;2022-07-25T07:44:16;11.90;;;10.98;;
5454;SDS011;2750;49.050;9.250;2022-07-25T07:49:18;11.95;;;10.90;;
5454;SDS011;2750;49.050;9.250;2022-07-25T07:54:20;11.00;;;10.10;;
5454;SDS011;2750;49.050;9.250;2022-07-25T07:59:39;13.18;;;12.18;;
5454;SDS011;2750;49.050;9.250;2022-07-25T08:04:41;12.30;;;11.43;;
5454;SDS011;2750;49.050;9.250;2022-07-25T08:09:43;12.15;;;11.02;;
5454;SDS011;2750;49.050;9.250;2022-07-25T08:14:45;12.50;;;11.40;;
5454;SDS011;2750;49.050;9.250;2022-07-25T08:19:46;12.48;;;11.35;;
5454;SDS011;2750;49.050;9.250;2022-07-25T08:24:49;13.20;;;12.10;;
5454;SDS011;2750;49.050;9.250;2022-07-25T08:29:50;11.93;;;11.13;;
5454;SDS011;2750;49.050;9.250;2022-07-25T08:34:52;11.63;;;10.82;;
5454;SDS011;2750;49.050;9.250;2022-07-25T08:39:55;12.90;;;11.82;;
5454;SDS011;2750;49.050;9.250;2022-07-25T08:44:57;13.10;;;11.95;;
5454;SDS011;2750;49.050;9.250;2022-07-25T08:50:03;11.52;;;10.65;;
5454;SDS011;2750;49.050;9.250;2022-07-25T08:55:09;11.90;;;10.93;;
5454;SDS011;2750;49.050;9.250;2022-07-25T09:00:15;11.40;;;10.50;;
5454;SDS011;2750;49.050;9.250;2022-07-25T09:05:18;12.07;;;10.95;;
5454;SDS011;2750;49.050;9.250;2022-07-25T09:10:22;11.73;;;10.93;;
5454;SDS011;2750;49.050;9.250;2022-07-25T09:15:26;11.68;;;10.68;;
5454;SDS011;2750;49.050;9.250;2022-07-25T09:20:36;11.68;;;10.63;;
5454;SDS011;2750;49.050;9.250;2022-07-25T09:25:41;11.70;;;10.70;;
5454;SDS011;2750;49.050;9.250;2022-07-25T09:30:51;12.32;;;11.43;;
5454;SDS011;2750;49.050;9.250;2022-07-25T09:35:54;12.23;;;11.32;;
5454;SDS011;2750;49.050;9.250;2022-07-25T09:40:58;13.13;;;11.88;;
5454;SDS011;2750;49.050;9.250;2022-07-25T09:46:01;12.93;;;11.90;;
5454;SDS011;2750;49.050;9.250;2022-07-25T09:51:03;11.57;;;10.73;;
5454;SDS011;2750;49.050;9.250;2022-07-25T09:56:07;11.68;;;10.88;;
5454;SDS011;2750;49.050;9.250;2022-07-25T10:01:09;11.68;;;10.70;;
5454;SDS011;2750;49.050;9.250;2022-07-25T10:06:18;11.25;;;10.45;;
5454;SDS011;2750;49.050;9.250;2022-07-25T10:11:24;11.73;;;10.73;;
5454;SDS011;2750;49.050;9.250;2022-07-25T10:16:28;10.55;;;9.63;;
5454;SDS011;2750;49.050;9.250;2022-07-25T10:21:30;11.75;;;10.30;;
5454;SDS011;2750;49.050;9.250;2022-07-25T10:26:33;10.23;;;9.48;;
5454;SDS011;2750;49.050;9.250;2022-07-25T10:31:39;10.30;;;9.40;;
5454;SDS011;2750;49.050;9.250;2022-07-25T10:36:43;10.98;;;10.07;;
5454;SDS011;2750;49.050;9.250;2022-07-25T10:41:50;9.90;;;9.10;;
5454;SDS011;2750;49.050;9.250;2022-07-25T10:47:03;9.30;;;8.55;;
5454;SDS011;2750;49.050;9.250;2022-07-25T10:52:06;9.93;;;9.23;;
5454;SDS011;2750;49.050;9.250;2022-07-25T10:57:14;9.63;;;8.82;;
5454;SDS011;2750;49.050;9.250;2022-07-25T11:02:15;9.35;;;8.65;;
5454;SDS011;2750;49.050;9.250;2022-07-25T11:07:18;9.70;;;8.90;;
5454;SDS011;2750;49.050;9.250;2022-07-25T11:12:20;9.50;;;8.77;;
5454;SDS011;2750;49.050;9.250;2022-07-25T11:17:22;8.40;;;7.70;;
5454;SDS011;2750;49.050;9.250;2022-07-25T11:22:25;9.30;;;8.60;;
5454;SDS011;2750;49.050;9.250;2022-07-25T11:27:29;9.52;;;8.82;;
5454;SDS011;2750;49.050;9.250;2022-07-25T11:32:36;8.35;;;7.75;;
5454;SDS011;2750;49.050;9.250;2022-07-25T11:37:39;9.73;;;8.85;;
5454;SDS011;2750;49.050;9.250;2022-07-25T11:42:44;9.40;;;8.68;;
5454;SDS011;2750;49.050;9.250;2022-07-25T11:47:47;9.00;;;8.30;;
5454;SDS011;2750;49.050;9.250;2022-07-25T11:52:56;8.63;;;7.85;;
5454;SDS011;2750;49.050;9.250;2022-07-25T11:58:01;9.98;;;7.80;;
5454;SDS011;2750;49.050;9.250;2022-07-25T12:03:05;7.93;;;7.10;;
5454;SDS011;2750;49.050;9.250;2022-07-25T12:08:08;8.77;;;8.07;;
5454;SDS011;2750;49.050;9.250;2022-07-25T12:13:19;8.35;;;7.60;;
5454;SDS011;2750;49.050;9.250;2022-07-25T12:18:22;9.45;;;7.80;;
5454;SDS011;2750;49.050;9.250;2022-07-25T12:23:23;8.70;;;8.00;;
5454;SDS011;2750;49.050;9.250;2022-07-25T12:28:26;8.95;;;8.20;;
5454;SDS011;2750;49.050;9.250;2022-07-25T12:33:28;8.43;;;7.63;;
5454;SDS011;2750;49.050;9.250;2022-07-25T12:38:29;8.45;;;7.63;;
5454;SDS011;2750;49.050;9.250;2022-07-25T12:43:32;8.88;;;8.18;;
5454;SDS011;2750;49.050;9.250;2022-07-25T12:48:34;8.88;;;8.18;;
5454;SDS011;2750;49.050;9.250;2022-07-25T12:53:35;10.27;;;8.30;;
5454;SDS011;2750;49.050;9.250;2022-07-25T12:58:38;10.45;;;8.68;;
5454;SDS011;2750;49.050;9.250;2022-07-25T13:03:39;9.35;;;8.45;;
5454;SDS011;2750;49.050;9.250;2022-07-25T13:08:41;9.75;;;8.73;;
5454;SDS011;2750;49.050;9.250;2022-07-25T13:13:44;9.52;;;8.57;;
5454;SDS011;2750;49.050;9.250;2022-07-25T13:18:46;10.35;;;8.63;;
5454;SDS011;2750;49.050;9.250;2022-07-25T13:23:47;9.40;;;8.70;;
5454;SDS011;2750;49.050;9.250;2022-07-25T13:28:50;8.57;;;7.97;;
5454;SDS011;2750;49.050;9.250;2022-07-25T13:33:52;9.50;;;8.73;;
5454;SDS011;2750;49.050;9.250;2022-07-25T13:38:53;9.48;;;8.55;;
5454;SDS011;2750;49.050;9.250;2022-07-25T13:43:56;9.32;;;8.60;;
5454;SDS011;2750;49.050;9.250;2022-07-25T13:48:59;9.68;;;8.98;;
5454;SDS011;2750;49.050;9.250;2022-07-25T13:54:01;9.65;;;8.88;;
5454;SDS011;2750;49.050;9.250;2022-07-25T13:59:04;9.98;;;9.07;;
5454;SDS011;2750;49.050;9.250;2022-07-25T14:04:05;10.93;;;10.13;;
5454;SDS011;2750;49.050;9.250;2022-07-25T14:09:07;10.98;;;10.07;;
5454;SDS011;2750;49.050;9.250;2022-07-25T14:14:09;10.10;;;9.20;;
5454;SDS011;2750;49.050;9.250;2022-07-25T14:19:11;12.38;;;11.38;;
5454;SDS011;2750;49.050;9.250;2022-07-25T14:24:12;12.25;;;11.15;;
5454;SDS011;2750;49.050;9.250;2022-07-25T14:29:15;13.85;;;11.98;;
5454;SDS011;2750;49.050;9.250;2022-07-25T14:34:17;12.30;;;11.23;;
5454;SDS011;2750;49.050;9.250;2022-07-25T14:39:18;11.95;;;10.45;;
5454;SDS011;2750;49.050;9.250;2022-07-25T14:44:21;11.70;;;10.70;;
5454;SDS011;2750;49.050;9.250;2022-07-25T14:49:23;11.05;;;10.02;;
5454;SDS011;2750;49.050;9.250;2022-07-25T14:54:27;11.07;;;10.10;;
5454;SDS011;2750;49.050;9.250;2022-07-25T14:59:30;10.65;;;9.75;;
5454;SDS011;2750;49.050;9.250;2022-07-25T15:04:32;10.57;;;9.57;;
5454;SDS011;2750;49.050;9.250;2022-07-25T15:09:33;11.48;;;10.35;;
5454;SDS011;2750;49.050;9.250;2022-07-25T15:14:36;10.95;;;9.98;;
5454;SDS011;2750;49.050;9.250;2022-07-25T15:19:38;11.85;;;10.73;;
5454;SDS011;2750;49.050;9.250;2022-07-25T15:24:39;12.95;;;10.75;;
5454;SDS011;2750;49.050;9.250;2022-07-25T15:29:42;16.15;;;11.30;;
5454;SDS011;2750;49.050;9.250;2022-07-25T15:34:44;13.10;;;11.95;;
5454;SDS011;2750;49.050;9.250;2022-07-25T15:39:45;11.85;;;10.75;;
5454;SDS011;2750;49.050;9.250;2022-07-25T15:44:48;10.52;;;9.60;;
5454;SDS011;2750;49.050;9.250;2022-07-25T15:49:50;11.18;;;10.38;;
5454;SDS011;2750;49.050;9.250;2022-07-25T15:54:51;10.52;;;9.73;;
5454;SDS011;2750;49.050;9.250;2022-07-25T15:59:54;10.07;;;9.27;;
5454;SDS011;2750;49.050;9.250;2022-07-25T16:04:55;10.45;;;9.55;;
5454;SDS011;2750;49.050;9.250;2022-07-25T16:09:57;9.75;;;8.75;;
5454;SDS011;2750;49.050;9.250;2022-07-25T16:15:00;8.73;;;8.02;;
5454;SDS011;2750;49.050;9.250;2022-07-25T16:20:01;8.50;;;7.80;;
5454;SDS011;2750;49.050;9.250;2022-07-25T16:25:04;9.05;;;7.65;;
5454;SDS011;2750;49.050;9.250;2022-07-25T16:30:08;8.57;;;7.88;;
5454;SDS011;2750;49.050;9.250;2022-07-25T16:35:10;8.85;;;8.02;;
5454;SDS011;2750;49.050;9.250;2022-07-25T16:40:12;7.93;;;7.32;;
5454;SDS011;2750;49.050;9.250;2022-07-25T16:45:15;8.43;;;7.65;;
5454;SDS011;2750;49.050;9.250;2022-07-25T16:50:17;8.05;;;7.25;;
5454;SDS011;2750;49.050;9.250;2022-07-25T16:55:18;8.40;;;7.68;;
5454;SDS011;2750;49.050;9.250;2022-07-25T17:00:21;8.00;;;7.38;;
5454;SDS011;2750;49.050;9.250;2022-07-25T17:05:23;8.45;;;7.75;;
5454;SDS011;2750;49.050;9.250;2022-07-25T17:10:24;8.70;;;7.90;;
5454;SDS011;2750;49.050;9.250;2022-07-25T17:15:27;8.98;;;8.18;;
5454;SDS011;2750;49.050;9.250;2022-07-25T17:20:29;8.88;;;8.13;;
5454;SDS011;2750;49.050;9.250;2022-07-25T17:25:30;9.15;;;8.25;;
5454;SDS011;2750;49.050;9.250;2022-07-25T17:30:33;8.82;;;8.10;;
5454;SDS011;2750;49.050;9.250;2022-07-25T17:35:35;10.02;;;8.90;;
5454;SDS011;2750;49.050;9.250;2022-07-25T17:40:36;9.32;;;8.60;;
5454;SDS011;2750;49.050;9.250;2022-07-25T17:45:39;9.32;;;8.35;;
5454;SDS011;2750;49.050;9.250;2022-07-25T17:50:41;8.75;;;7.95;;
5454;SDS011;2750;49.050;9.250;2022-07-25T17:55:44;8.85;;;8.15;;
5454;SDS011;2750;49.050;9.250;2022-07-25T18:00:47;8.27;;;7.68;;
5454;SDS011;2750;49.050;9.250;2022-07-25T18:05:49;8.30;;;7.45;;
5454;SDS011;2750;49.050;9.250;2022-07-25T18:10:50;8.65;;;7.85;;
5454;SDS011;2750;49.050;9.250;2022-07-25T18:15:54;12.80;;;7.43;;
5454;SDS011;2750;49.050;9.250;2022-07-25T18:20:55;9.07;;;7.72;;
5454;SDS011;2750;49.050;9.250;2022-07-25T18:25:57;7.18;;;6.15;;
5454;SDS011;2750;49.050;9.250;2022-07-25T18:31:00;7.72;;;6.50;;
5454;SDS011;2750;49.050;9.250;2022-07-25T18:36:01;12.95;;;6.22;;
5454;SDS011;2750;49.050;9.250;2022-07-25T18:41:03;7.05;;;6.35;;
5454;SDS011;2750;49.050;9.250;2022-07-25T18:46:06;7.80;;;6.13;;
5454;SDS011;2750;49.050;9.250;2022-07-25T18:51:08;8.18;;;5.97;;
5454;SDS011;2750;49.050;9.250;2022-07-25T18:56:10;4.78;;;4.32;;
5454;SDS011;2750;49.050;9.250;2022-07-25T19:01:13;6.85;;;5.28;;
5454;SDS011;2750;49.050;9.250;2022-07-25T19:06:15;5.40;;;4.32;;
5454;SDS011;2750;49.050;9.250;2022-07-25T19:11:16;7.65;;;4.72;;
5454;SDS011;2750;49.050;9.250;2022-07-25T19:16:19;7.07;;;5.38;;
5454;SDS011;2750;49.050;9.250;2022-07-25T19:21:21;7.28;;;4.25;;
5454;SDS011;2750;49.050;9.250;2022-07-25T19:26:22;4.78;;;4.32;;
5454;SDS011;2750;49.050;9.250;2022-07-25T19:31:25;5.82;;;5.00;;
5454;SDS011;2750;49.050;9.250;2022-07-25T19:36:27;8.80;;;4.53;;
5454;SDS011;2750;49.050;9.250;2022-07-25T19:41:28;5.63;;;4.40;;
5454;SDS011;2750;49.050;9.250;2022-07-25T19:46:31;4.85;;;4.43;;
5454;SDS011;2750;49.050;9.250;2022-07-25T19:51:33;5.55;;;4.00;;
5454;SDS011;2750;49.050;9.250;2022-07-25T19:56:35;7.15;;;4.10;;
5454;SDS011;2750;49.050;9.250;2022-07-25T20:01:38;5.15;;;4.30;;
5454;SDS011;2750;49.050;9.250;2022-07-25T20:06:39;5.13;;;4.38;;
5454;SDS011;2750;49.050;9.250;2022-07-25T20:11:41;8.55;;;4.78;;
5454;SDS011;2750;49.050;9.250;2022-07-25T20:16:44;4.80;;;3.70;;
5454;SDS011;2750;49.050;9.250;2022-07-25T20:21:45;7.07;;;4.20;;
5454;SDS011;2750;49.050;9.250;2022-07-25T20:26:47;5.30;;;3.47;;
5454;SDS011;2750;49.050;9.250;2022-07-25T20:31:50;6.65;;;3.50;;
5454;SDS011;2750;49.050;9.250;2022-07-25T20:36:52;5.95;;;2.95;;
5454;SDS011;2750;49.050;9.250;2022-07-25T20:41:54;5.50;;;3.35;;
5454;SDS011;2750;49.050;9.250;2022-07-25T20:46:57;5.38;;;3.80;;
5454;SDS011;2750;49.050;9.250;2022-07-25T20:51:58;5.22;;;3.20;;
5454;SDS011;2750;49.050;9.250;2022-07-25T20:57:00;7.70;;;3.95;;
5454;SDS011;2750;49.050;9.250;2022-07-25T21:02:03;6.15;;;3.20;;
5454;SDS011;2750;49.050;9.250;2022-07-25T21:07:04;3.67;;;2.80;;
5454;SDS011;2750;49.050;9.250;2022-07-25T21:12:06;5.97;;;3.17;;
5454;SDS011;2750;49.050;9.250;2022-07-25T21:17:10;4.90;;;3.13;;
5454;SDS011;2750;49.050;9.250;2022-07-25T21:22:11;7.13;;;3.50;;
5454;SDS011;2750;49.050;9.250;2022-07-25T21:27:12;4.47;;;3.65;;
5454;SDS011;2750;49.050;9.250;2022-07-25T21:32:15;6.38;;;3.70;;
5454;SDS011;2750;49.050;9.250;2022-07-25T21:37:18;5.10;;;3.55;;
5454;SDS011;2750;49.050;9.250;2022-07-25T21:42:20;5.60;;;3.67;;
5454;SDS011;2750;49.050;9.250;2022-07-25T21:47:23;5.82;;;3.30;;
5454;SDS011;2750;49.050;9.250;2022-07-25T21:52:24;4.75;;;2.85;;
5454;SDS011;2750;49.050;9.250;2022-07-25T21:57:26;4.85;;;3.20;;
5454;SDS011;2750;49.050;9.250;2022-07-25T22:02:29;3.40;;;3.10;;
5454;SDS011;2750;49.050;9.250;2022-07-25T22:07:30;4.35;;;2.97;;
5454;SDS011;2750;49.050;9.250;2022-07-25T22:12:31;6.43;;;3.17;;
5454;SDS011;2750;49.050;9.250;2022-07-25T22:17:35;4.40;;;3.22;;
5454;SDS011;2750;49.050;9.250;2022-07-25T22:22:36;6.83;;;3.57;;
5454;SDS011;2750;49.050;9.250;2022-07-25T22:27:38;3.80;;;3.10;;
5454;SDS011;2750;49.050;9.250;2022-07-25T22:32:40;4.60;;;3.10;;
5454;SDS011;2750;49.050;9.250;2022-07-25T22:37:42;6.97;;;3.20;;
5454;SDS011;2750;49.050;9.250;2022-07-25T22:42:44;3.63;;;2.27;;
5454;SDS011;2750;49.050;9.250;2022-07-25T22:47:46;4.50;;;2.70;;
5454;SDS011;2750;49.050;9.250;2022-07-25T22:52:48;7.57;;;2.23;;
5454;SDS011;2750;49.050;9.250;2022-07-25T22:57:49;4.20;;;2.63;;
5454;SDS011;2750;49.050;9.250;2022-07-25T23:02:52;6.50;;;2.67;;
5454;SDS011;2750;49.050;9.250;2022-07-25T23:07:54;3.97;;;2.23;;
5454;SDS011;2750;49.050;9.250;2022-07-25T23:12:55;2.70;;;2.20;;
5454;SDS011;2750;49.050;9.250;2022-07-25T23:17:58;5.73;;;3.00;;
5454;SDS011;2750;49.050;9.250;2022-07-25T23:22:59;4.37;;;2.70;;
5454;SDS011;2750;49.050;9.250;2022-07-25T23:28:01;3.37;;;2.57;;
5454;SDS011;2750;49.050;9.250;2022-07-25T23:33:04;4.97;;;2.47;;
5454;SDS011;2750;49.050;9.250;2022-07-25T23:38:05;2.70;;;2.50;;
5454;SDS011;2750;49.050;9.250;2022-07-25T23:43:07;5.33;;;2.37;;
5454;SDS011;2750;49.050;9.250;2022-07-25T23:48:09;4.63;;;2.80;;
5454;SDS011;2750;49.050;9.250;2022-07-25T23:53:11;3.13;;;2.47;;
5454;SDS011;2750;49.050;9.250;2022-07-25T23:58:12;3.17;;;2.33;;
